sensor_id;sensor_type;location;lat;lon;timestamp;temperature;humidity
18297;DHT22;18066;52.106;5.534;2022-10-13T00:00:30;11.60;99.90
18297;DHT22;18066;52.106;5.534;2022-10-13T00:02:59;12.20;99.90
18297;DHT22;18066;52.106;5.534;2022-10-13T00:05:26;13.40;99.90
18297;DHT22;18066;52.106;5.534;2022-10-13T00:07:53;11.70;99.90
18297;DHT22;18066;52.106;5.534;2022-10-13T00:10:20;13.20;99.90
18297;DHT22;18066;52.106;5.534;2022-10-13T00:12:47;12.20;99.90
18297;DHT22;18066;52.106;5.534;2022-10-13T00:15:16;11.70;99.90
18297;DHT22;18066;52.106;5.534;2022-10-13T00:17:43;12.00;99.90
18297;DHT22;18066;52.106;5.534;2022-10-13T00:20:11;11.70;99.90
18297;DHT22;18066;52.106;5.534;2022-10-13T00:22:38;12.30;99.90
18297;DHT22;18066;52.106;5.534;2022-10-13T00:25:05;13.00;99.90
18297;DHT22;18066;52.106;5.534;2022-10-13T00:27:33;12.10;99.90
18297;DHT22;18066;52.106;5.534;2022-10-13T00:30:00;12.70;99.90
18297;DHT22;18066;52.106;5.534;2022-10-13T00:32:28;13.50;99.90
18297;DHT22;18066;52.106;5.534;2022-10-13T00:34:55;11.30;99.90
18297;DHT22;18066;52.106;5.534;2022-10-13T00:37:23;12.50;99.90
18297;DHT22;18066;52.106;5.534;2022-10-13T00:39:50;12.00;99.90
18297;DHT22;18066;52.106;5.534;2022-10-13T00:42:17;13.10;99.90
18297;DHT22;18066;52.106;5.534;2022-10-13T00:45:02;12.20;99.90
18297;DHT22;18066;52.106;5.534;2022-10-13T00:47:35;12.00;99.90
18297;DHT22;18066;52.106;5.534;2022-10-13T00:50:04;11.60;99.90
18297;DHT22;18066;52.106;5.534;2022-10-13T00:52:32;12.20;99.90
18297;DHT22;18066;52.106;5.534;2022-10-13T00:55:01;12.40;99.90
18297;DHT22;18066;52.106;5.534;2022-10-13T00:57:29;12.30;99.90
18297;DHT22;18066;52.106;5.534;2022-10-13T00:59:56;13.10;99.90
18297;DHT22;18066;52.106;5.534;2022-10-13T01:02:28;11.70;99.90
18297;DHT22;18066;52.106;5.534;2022-10-13T01:04:58;12.30;99.90
18297;DHT22;18066;52.106;5.534;2022-10-13T01:07:27;12.50;99.90
18297;DHT22;18066;52.106;5.534;2022-10-13T01:09:54;12.30;99.90
18297;DHT22;18066;52.106;5.534;2022-10-13T01:12:31;12.00;99.90
18297;DHT22;18066;52.106;5.534;2022-10-13T01:15:06;12.20;99.90
18297;DHT22;18066;52.106;5.534;2022-10-13T01:17:40;12.30;99.90
18297;DHT22;18066;52.106;5.534;2022-10-13T01:20:53;12.60;99.90
18297;DHT22;18066;52.106;5.534;2022-10-13T01:23:54;12.90;99.90
18297;DHT22;18066;52.106;5.534;2022-10-13T01:26:47;12.60;99.90
18297;DHT22;18066;52.106;5.534;2022-10-13T01:32:29;12.40;99.90
18297;DHT22;18066;52.106;5.534;2022-10-13T01:35:05;12.20;99.90
18297;DHT22;18066;52.106;5.534;2022-10-13T01:37:37;12.90;99.90
18297;DHT22;18066;52.106;5.534;2022-10-13T01:40:13;11.80;99.90
18297;DHT22;18066;52.106;5.534;2022-10-13T01:42:47;12.10;99.90
18297;DHT22;18066;52.106;5.534;2022-10-13T01:45:17;13.60;99.90
18297;DHT22;18066;52.106;5.534;2022-10-13T01:47:46;12.20;99.90
18297;DHT22;18066;52.106;5.534;2022-10-13T01:50:16;12.30;99.90
18297;DHT22;18066;52.106;5.534;2022-10-13T01:52:44;12.30;99.90
18297;DHT22;18066;52.106;5.534;2022-10-13T01:55:12;13.00;99.90
18297;DHT22;18066;52.106;5.534;2022-10-13T01:57:41;12.20;99.90
18297;DHT22;18066;52.106;5.534;2022-10-13T02:00:10;12.50;99.90
18297;DHT22;18066;52.106;5.534;2022-10-13T02:02:42;12.30;99.90
18297;DHT22;18066;52.106;5.534;2022-10-13T02:05:20;12.30;99.90
18297;DHT22;18066;52.106;5.534;2022-10-13T02:07:54;12.40;99.90
18297;DHT22;18066;52.106;5.534;2022-10-13T02:10:27;12.90;99.90
18297;DHT22;18066;52.106;5.534;2022-10-13T02:12:59;12.10;99.90
18297;DHT22;18066;52.106;5.534;2022-10-13T02:15:29;14.10;99.90
18297;DHT22;18066;52.106;5.534;2022-10-13T02:18:00;13.30;99.90
18297;DHT22;18066;52.106;5.534;2022-10-13T02:20:29;12.80;99.90
18297;DHT22;18066;52.106;5.534;2022-10-13T02:23:02;13.00;99.90
18297;DHT22;18066;52.106;5.534;2022-10-13T02:25:30;13.80;99.90
18297;DHT22;18066;52.106;5.534;2022-10-13T02:27:59;12.30;99.90
18297;DHT22;18066;52.106;5.534;2022-10-13T02:30:29;12.00;99.90
18297;DHT22;18066;52.106;5.534;2022-10-13T02:32:57;12.60;99.90
18297;DHT22;18066;52.106;5.534;2022-10-13T02:35:25;13.60;99.90
18297;DHT22;18066;52.106;5.534;2022-10-13T02:37:53;12.30;99.90
18297;DHT22;18066;52.106;5.534;2022-10-13T02:40:20;12.90;99.90
18297;DHT22;18066;52.106;5.534;2022-10-13T02:42:47;12.60;99.90
18297;DHT22;18066;52.106;5.534;2022-10-13T02:45:14;12.50;99.90
18297;DHT22;18066;52.106;5.534;2022-10-13T02:47:41;12.60;99.90
18297;DHT22;18066;52.106;5.534;2022-10-13T02:50:08;12.90;99.90
18297;DHT22;18066;52.106;5.534;2022-10-13T02:52:35;12.50;99.90
18297;DHT22;18066;52.106;5.534;2022-10-13T02:55:05;12.40;99.90
18297;DHT22;18066;52.106;5.534;2022-10-13T02:57:32;12.70;99.90
18297;DHT22;18066;52.106;5.534;2022-10-13T02:59:59;13.10;99.90
18297;DHT22;18066;52.106;5.534;2022-10-13T03:02:26;12.50;99.90
18297;DHT22;18066;52.106;5.534;2022-10-13T03:04:53;12.40;99.90
18297;DHT22;18066;52.106;5.534;2022-10-13T03:07:20;12.20;99.90
18297;DHT22;18066;52.106;5.534;2022-10-13T03:09:47;13.20;99.90
18297;DHT22;18066;52.106;5.534;2022-10-13T03:12:16;12.10;99.90
18297;DHT22;18066;52.106;5.534;2022-10-13T03:14:42;12.50;99.90
18297;DHT22;18066;52.106;5.534;2022-10-13T03:17:10;12.50;99.90
18297;DHT22;18066;52.106;5.534;2022-10-13T03:19:37;12.90;99.90
18297;DHT22;18066;52.106;5.534;2022-10-13T03:22:04;11.90;99.90
18297;DHT22;18066;52.106;5.534;2022-10-13T03:24:31;14.20;99.90
18297;DHT22;18066;52.106;5.534;2022-10-13T03:26:59;14.80;99.90
18297;DHT22;18066;52.106;5.534;2022-10-13T03:29:29;12.60;99.90
18297;DHT22;18066;52.106;5.534;2022-10-13T03:31:56;12.70;99.90
18297;DHT22;18066;52.106;5.534;2022-10-13T03:34:23;13.30;99.90
18297;DHT22;18066;52.106;5.534;2022-10-13T03:36:50;12.50;99.90
18297;DHT22;18066;52.106;5.534;2022-10-13T03:39:20;13.10;99.90
18297;DHT22;18066;52.106;5.534;2022-10-13T03:41:48;13.80;99.90
18297;DHT22;18066;52.106;5.534;2022-10-13T03:44:15;13.70;99.90
18297;DHT22;18066;52.106;5.534;2022-10-13T03:46:43;13.90;99.90
18297;DHT22;18066;52.106;5.534;2022-10-13T03:49:11;13.10;99.90
18297;DHT22;18066;52.106;5.534;2022-10-13T03:51:38;13.60;99.90
18297;DHT22;18066;52.106;5.534;2022-10-13T03:54:05;11.80;99.90
18297;DHT22;18066;52.106;5.534;2022-10-13T03:56:33;13.00;99.90
18297;DHT22;18066;52.106;5.534;2022-10-13T03:59:00;12.60;99.90
18297;DHT22;18066;52.106;5.534;2022-10-13T04:01:30;12.30;99.90
18297;DHT22;18066;52.106;5.534;2022-10-13T04:04:01;14.90;99.90
18297;DHT22;18066;52.106;5.534;2022-10-13T04:06:29;12.80;99.90
18297;DHT22;18066;52.106;5.534;2022-10-13T04:08:57;12.90;99.90
18297;DHT22;18066;52.106;5.534;2022-10-13T04:11:24;12.00;99.90
18297;DHT22;18066;52.106;5.534;2022-10-13T04:13:55;12.50;99.90
18297;DHT22;18066;52.106;5.534;2022-10-13T04:16:25;12.20;99.90
18297;DHT22;18066;52.106;5.534;2022-10-13T04:18:55;13.50;99.90
18297;DHT22;18066;52.106;5.534;2022-10-13T04:21:24;14.80;99.90
18297;DHT22;18066;52.106;5.534;2022-10-13T04:23:53;13.60;99.90
18297;DHT22;18066;52.106;5.534;2022-10-13T04:26:24;14.30;99.90
18297;DHT22;18066;52.106;5.534;2022-10-13T04:28:55;14.40;99.90
18297;DHT22;18066;52.106;5.534;2022-10-13T04:31:22;12.90;99.90
18297;DHT22;18066;52.106;5.534;2022-10-13T04:33:50;12.90;99.90
18297;DHT22;18066;52.106;5.534;2022-10-13T04:36:18;12.60;99.90
18297;DHT22;18066;52.106;5.534;2022-10-13T04:38:48;11.60;99.90
18297;DHT22;18066;52.106;5.534;2022-10-13T04:41:16;13.90;99.90
18297;DHT22;18066;52.106;5.534;2022-10-13T04:43:51;13.50;99.90
18297;DHT22;18066;52.106;5.534;2022-10-13T04:46:21;13.10;99.90
18297;DHT22;18066;52.106;5.534;2022-10-13T04:48:49;14.00;99.90
18297;DHT22;18066;52.106;5.534;2022-10-13T04:51:24;13.50;99.90
18297;DHT22;18066;52.106;5.534;2022-10-13T04:53:56;12.90;99.90
18297;DHT22;18066;52.106;5.534;2022-10-13T04:56:27;13.60;99.90
18297;DHT22;18066;52.106;5.534;2022-10-13T04:58:55;13.70;99.90
18297;DHT22;18066;52.106;5.534;2022-10-13T05:01:24;13.10;99.90
18297;DHT22;18066;52.106;5.534;2022-10-13T05:03:52;12.60;99.90
18297;DHT22;18066;52.106;5.534;2022-10-13T05:06:23;13.10;99.90
18297;DHT22;18066;52.106;5.534;2022-10-13T05:08:51;13.80;99.90
18297;DHT22;18066;52.106;5.534;2022-10-13T05:11:22;12.60;99.90
18297;DHT22;18066;52.106;5.534;2022-10-13T05:13:50;12.90;99.90
18297;DHT22;18066;52.106;5.534;2022-10-13T05:16:18;13.40;99.90
18297;DHT22;18066;52.106;5.534;2022-10-13T05:18:49;12.90;99.90
18297;DHT22;18066;52.106;5.534;2022-10-13T05:21:18;12.70;99.90
18297;DHT22;18066;52.106;5.534;2022-10-13T05:23:47;13.70;99.90
18297;DHT22;18066;52.106;5.534;2022-10-13T05:26:18;13.10;99.90
18297;DHT22;18066;52.106;5.534;2022-10-13T05:28:47;13.00;99.90
18297;DHT22;18066;52.106;5.534;2022-10-13T05:31:23;14.60;99.90
18297;DHT22;18066;52.106;5.534;2022-10-13T05:33:55;13.70;99.90
18297;DHT22;18066;52.106;5.534;2022-10-13T05:36:28;13.70;99.90
18297;DHT22;18066;52.106;5.534;2022-10-13T05:38:58;11.60;99.90
18297;DHT22;18066;52.106;5.534;2022-10-13T05:41:26;13.70;99.90
18297;DHT22;18066;52.106;5.534;2022-10-13T05:43:58;13.20;99.90
18297;DHT22;18066;52.106;5.534;2022-10-13T05:46:40;12.80;99.90
18297;DHT22;18066;52.106;5.534;2022-10-13T05:59:27;13.30;99.90
18297;DHT22;18066;52.106;5.534;2022-10-13T06:29:33;13.10;99.90
18297;DHT22;18066;52.106;5.534;2022-10-13T06:35:53;13.30;99.90
18297;DHT22;18066;52.106;5.534;2022-10-13T06:42:17;14.20;99.90
18297;DHT22;18066;52.106;5.534;2022-10-13T06:45:18;13.20;99.90
18297;DHT22;18066;52.106;5.534;2022-10-13T06:54:52;13.10;99.90
18297;DHT22;18066;52.106;5.534;2022-10-13T07:11:23;13.30;99.90
18297;DHT22;18066;52.106;5.534;2022-10-13T07:24:30;13.90;99.90
18297;DHT22;18066;52.106;5.534;2022-10-13T07:27:57;13.80;99.90
18297;DHT22;18066;52.106;5.534;2022-10-13T08:09:56;15.00;99.90
18297;DHT22;18066;52.106;5.534;2022-10-13T08:13:10;14.30;99.90
18297;DHT22;18066;52.106;5.534;2022-10-13T08:24:01;14.40;99.90
18297;DHT22;18066;52.106;5.534;2022-10-13T08:29:41;14.40;99.90
18297;DHT22;18066;52.106;5.534;2022-10-13T08:32:47;14.90;99.90
18297;DHT22;18066;52.106;5.534;2022-10-13T08:39:02;15.00;99.90
18297;DHT22;18066;52.106;5.534;2022-10-13T08:41:42;14.20;99.90
18297;DHT22;18066;52.106;5.534;2022-10-13T08:44:40;14.70;99.90
18297;DHT22;18066;52.106;5.534;2022-10-13T08:47:50;16.10;99.90
18297;DHT22;18066;52.106;5.534;2022-10-13T08:53:49;13.80;99.90
18297;DHT22;18066;52.106;5.534;2022-10-13T09:03:28;15.60;99.90
18297;DHT22;18066;52.106;5.534;2022-10-13T09:06:34;14.80;99.90
18297;DHT22;18066;52.106;5.534;2022-10-13T09:09:16;15.10;99.90
18297;DHT22;18066;52.106;5.534;2022-10-13T09:12:03;14.80;99.90
18297;DHT22;18066;52.106;5.534;2022-10-13T09:17:47;15.90;99.90
18297;DHT22;18066;52.106;5.534;2022-10-13T09:20:40;14.50;99.90
18297;DHT22;18066;52.106;5.534;2022-10-13T09:23:49;15.70;99.90
18297;DHT22;18066;52.106;5.534;2022-10-13T09:26:23;15.30;99.90
18297;DHT22;18066;52.106;5.534;2022-10-13T09:28:57;14.00;99.90
18297;DHT22;18066;52.106;5.534;2022-10-13T09:33:25;14.80;99.90
18297;DHT22;18066;52.106;5.534;2022-10-13T09:35:20;15.30;99.90
18297;DHT22;18066;52.106;5.534;2022-10-13T09:38:26;15.40;99.90
18297;DHT22;18066;52.106;5.534;2022-10-13T09:50:46;15.50;99.90
18297;DHT22;18066;52.106;5.534;2022-10-13T09:57:46;15.50;99.90
18297;DHT22;18066;52.106;5.534;2022-10-13T10:03:32;15.60;99.90
18297;DHT22;18066;52.106;5.534;2022-10-13T10:19:41;16.60;99.90
18297;DHT22;18066;52.106;5.534;2022-10-13T10:23:17;16.80;99.90
18297;DHT22;18066;52.106;5.534;2022-10-13T10:26:32;16.00;99.90
18297;DHT22;18066;52.106;5.534;2022-10-13T10:36:21;17.30;99.90
18297;DHT22;18066;52.106;5.534;2022-10-13T10:40:34;16.80;99.90
18297;DHT22;18066;52.106;5.534;2022-10-13T11:13:49;17.70;99.90
18297;DHT22;18066;52.106;5.534;2022-10-13T11:19:57;15.80;99.90
18297;DHT22;18066;52.106;5.534;2022-10-13T11:23:28;16.60;99.90
18297;DHT22;18066;52.106;5.534;2022-10-13T11:43:53;16.20;99.90
18297;DHT22;18066;52.106;5.534;2022-10-13T11:46:58;16.10;99.90
18297;DHT22;18066;52.106;5.534;2022-10-13T11:53:05;15.80;99.90
18297;DHT22;18066;52.106;5.534;2022-10-13T11:57:15;15.90;99.90
18297;DHT22;18066;52.106;5.534;2022-10-13T11:59:43;16.10;99.90
18297;DHT22;18066;52.106;5.534;2022-10-13T12:05:48;16.50;99.90
18297;DHT22;18066;52.106;5.534;2022-10-13T12:09:14;16.30;99.90
18297;DHT22;18066;52.106;5.534;2022-10-13T12:12:11;15.80;99.90
18297;DHT22;18066;52.106;5.534;2022-10-13T12:55:20;15.40;99.90
18297;DHT22;18066;52.106;5.534;2022-10-13T12:58:31;15.90;99.90
18297;DHT22;18066;52.106;5.534;2022-10-13T13:01:40;15.80;99.90
18297;DHT22;18066;52.106;5.534;2022-10-13T13:18:29;14.20;99.90
18297;DHT22;18066;52.106;5.534;2022-10-13T13:21:19;15.40;99.90
18297;DHT22;18066;52.106;5.534;2022-10-13T13:23:52;15.70;99.90
18297;DHT22;18066;52.106;5.534;2022-10-13T13:46:10;16.90;99.90
18297;DHT22;18066;52.106;5.534;2022-10-13T13:49:14;16.70;99.90
18297;DHT22;18066;52.106;5.534;2022-10-13T13:52:48;16.10;99.90
18297;DHT22;18066;52.106;5.534;2022-10-13T14:02:10;16.80;99.90
18297;DHT22;18066;52.106;5.534;2022-10-13T14:11:06;17.00;99.90
18297;DHT22;18066;52.106;5.534;2022-10-13T14:14:03;15.90;99.90
18297;DHT22;18066;52.106;5.534;2022-10-13T14:49:54;16.00;99.90
18297;DHT22;18066;52.106;5.534;2022-10-13T15:57:33;16.40;99.90
18297;DHT22;18066;52.106;5.534;2022-10-13T16:06:44;15.80;99.90
18297;DHT22;18066;52.106;5.534;2022-10-13T16:13:36;16.50;99.90
18297;DHT22;18066;52.106;5.534;2022-10-13T16:16:19;16.60;99.90
18297;DHT22;18066;52.106;5.534;2022-10-13T16:19:13;16.30;99.90
18297;DHT22;18066;52.106;5.534;2022-10-13T16:22:08;16.00;99.90
18297;DHT22;18066;52.106;5.534;2022-10-13T16:24:55;15.60;99.90
18297;DHT22;18066;52.106;5.534;2022-10-13T16:31:12;15.90;99.90
18297;DHT22;18066;52.106;5.534;2022-10-13T16:37:29;14.20;99.90
18297;DHT22;18066;52.106;5.534;2022-10-13T16:40:30;16.10;99.90
18297;DHT22;18066;52.106;5.534;2022-10-13T16:43:32;15.30;99.90
18297;DHT22;18066;52.106;5.534;2022-10-13T16:46:38;15.70;99.90
18297;DHT22;18066;52.106;5.534;2022-10-13T16:49:40;15.90;99.90
18297;DHT22;18066;52.106;5.534;2022-10-13T16:55:33;15.10;99.90
18297;DHT22;18066;52.106;5.534;2022-10-13T16:58:35;14.70;99.90
18297;DHT22;18066;52.106;5.534;2022-10-13T17:01:36;15.40;99.90
18297;DHT22;18066;52.106;5.534;2022-10-13T17:05:43;15.20;99.90
18297;DHT22;18066;52.106;5.534;2022-10-13T17:13:07;14.80;99.90
18297;DHT22;18066;52.106;5.534;2022-10-13T17:14:28;14.60;99.90
18297;DHT22;18066;52.106;5.534;2022-10-13T17:20:20;15.00;99.90
18297;DHT22;18066;52.106;5.534;2022-10-13T18:34:10;14.30;99.90
18297;DHT22;18066;52.106;5.534;2022-10-13T18:37:33;14.30;99.90
18297;DHT22;18066;52.106;5.534;2022-10-13T18:40:29;14.80;99.90
18297;DHT22;18066;52.106;5.534;2022-10-13T18:43:27;13.90;99.90
18297;DHT22;18066;52.106;5.534;2022-10-13T18:46:51;14.80;99.90
18297;DHT22;18066;52.106;5.534;2022-10-13T18:53:49;15.40;99.90
18297;DHT22;18066;52.106;5.534;2022-10-13T18:57:00;14.20;99.90
18297;DHT22;18066;52.106;5.534;2022-10-13T18:59:52;14.20;99.90
18297;DHT22;18066;52.106;5.534;2022-10-13T19:03:01;13.20;99.90
18297;DHT22;18066;52.106;5.534;2022-10-13T19:06:02;14.10;99.90
18297;DHT22;18066;52.106;5.534;2022-10-13T20:02:21;15.40;99.90
18297;DHT22;18066;52.106;5.534;2022-10-13T20:04:40;14.60;99.90
18297;DHT22;18066;52.106;5.534;2022-10-13T20:13:32;14.90;99.90
18297;DHT22;18066;52.106;5.534;2022-10-13T20:16:17;14.50;99.90
18297;DHT22;18066;52.106;5.534;2022-10-13T20:18:55;13.40;99.90
18297;DHT22;18066;52.106;5.534;2022-10-13T20:21:28;12.80;99.90
18297;DHT22;18066;52.106;5.534;2022-10-13T20:24:13;13.00;99.90
18297;DHT22;18066;52.106;5.534;2022-10-13T20:26:49;13.00;99.90
18297;DHT22;18066;52.106;5.534;2022-10-13T20:29:33;14.10;99.90
18297;DHT22;18066;52.106;5.534;2022-10-13T20:32:11;13.50;99.90
18297;DHT22;18066;52.106;5.534;2022-10-13T20:34:45;13.80;99.90
18297;DHT22;18066;52.106;5.534;2022-10-13T20:37:19;13.50;99.90
18297;DHT22;18066;52.106;5.534;2022-10-13T20:39:53;12.80;99.90
18297;DHT22;18066;52.106;5.534;2022-10-13T20:42:36;12.70;99.90
18297;DHT22;18066;52.106;5.534;2022-10-13T20:45:17;12.60;99.90
18297;DHT22;18066;52.106;5.534;2022-10-13T20:47:54;13.60;99.90
18297;DHT22;18066;52.106;5.534;2022-10-13T20:50:30;13.80;99.90
18297;DHT22;18066;52.106;5.534;2022-10-13T20:53:09;13.20;99.90
18297;DHT22;18066;52.106;5.534;2022-10-13T20:55:56;12.90;99.90
18297;DHT22;18066;52.106;5.534;2022-10-13T20:58:39;12.40;99.90
18297;DHT22;18066;52.106;5.534;2022-10-13T21:01:29;13.30;99.90
18297;DHT22;18066;52.106;5.534;2022-10-13T21:04:21;12.80;99.90
18297;DHT22;18066;52.106;5.534;2022-10-13T21:07:07;14.30;99.90
18297;DHT22;18066;52.106;5.534;2022-10-13T21:09:47;12.70;99.90
18297;DHT22;18066;52.106;5.534;2022-10-13T21:12:39;12.10;99.90
18297;DHT22;18066;52.106;5.534;2022-10-13T21:15:10;12.90;99.90
18297;DHT22;18066;52.106;5.534;2022-10-13T21:17:49;12.80;99.90
18297;DHT22;18066;52.106;5.534;2022-10-13T21:20:28;12.90;99.90
18297;DHT22;18066;52.106;5.534;2022-10-13T21:23:05;12.90;99.90
18297;DHT22;18066;52.106;5.534;2022-10-13T21:25:53;13.00;99.90
18297;DHT22;18066;52.106;5.534;2022-10-13T21:28:21;12.20;99.90
18297;DHT22;18066;52.106;5.534;2022-10-13T21:31:07;12.60;99.90
18297;DHT22;18066;52.106;5.534;2022-10-13T21:33:49;13.50;99.90
18297;DHT22;18066;52.106;5.534;2022-10-13T21:36:29;13.00;99.90
18297;DHT22;18066;52.106;5.534;2022-10-13T21:39:19;11.30;99.90
18297;DHT22;18066;52.106;5.534;2022-10-13T21:41:58;13.60;99.90
18297;DHT22;18066;52.106;5.534;2022-10-13T21:44:36;12.60;99.90
18297;DHT22;18066;52.106;5.534;2022-10-13T21:47:05;12.30;99.90
18297;DHT22;18066;52.106;5.534;2022-10-13T21:49:42;12.80;99.90
18297;DHT22;18066;52.106;5.534;2022-10-13T21:52:25;12.70;99.90
18297;DHT22;18066;52.106;5.534;2022-10-13T21:54:56;12.70;99.90
18297;DHT22;18066;52.106;5.534;2022-10-13T21:57:23;12.90;99.90
18297;DHT22;18066;52.106;5.534;2022-10-13T22:00:32;14.00;99.90
18297;DHT22;18066;52.106;5.534;2022-10-13T22:03:18;12.60;99.90
18297;DHT22;18066;52.106;5.534;2022-10-13T22:05:49;13.30;99.90
18297;DHT22;18066;52.106;5.534;2022-10-13T22:11:20;14.70;99.90
18297;DHT22;18066;52.106;5.534;2022-10-13T22:14:02;13.60;99.90
18297;DHT22;18066;52.106;5.534;2022-10-13T22:16:45;13.20;99.90
18297;DHT22;18066;52.106;5.534;2022-10-13T22:19:17;13.40;99.90
18297;DHT22;18066;52.106;5.534;2022-10-13T22:21:51;13.70;99.90
18297;DHT22;18066;52.106;5.534;2022-10-13T22:27:48;13.80;99.90
18297;DHT22;18066;52.106;5.534;2022-10-13T22:30:38;12.50;99.90
18297;DHT22;18066;52.106;5.534;2022-10-13T22:33:15;13.20;99.90
18297;DHT22;18066;52.106;5.534;2022-10-13T22:35:51;14.10;99.90
18297;DHT22;18066;52.106;5.534;2022-10-13T22:38:35;12.70;99.90
18297;DHT22;18066;52.106;5.534;2022-10-13T22:41:13;14.00;99.90
18297;DHT22;18066;52.106;5.534;2022-10-13T22:43:54;13.70;99.90
18297;DHT22;18066;52.106;5.534;2022-10-13T22:46:36;12.80;99.90
18297;DHT22;18066;52.106;5.534;2022-10-13T22:49:29;14.30;99.90
18297;DHT22;18066;52.106;5.534;2022-10-13T22:52:23;12.40;99.90
18297;DHT22;18066;52.106;5.534;2022-10-13T22:55:06;13.80;99.90
18297;DHT22;18066;52.106;5.534;2022-10-13T22:57:43;14.10;99.90
18297;DHT22;18066;52.106;5.534;2022-10-13T23:03:18;13.10;99.90
18297;DHT22;18066;52.106;5.534;2022-10-13T23:05:54;13.10;99.90
18297;DHT22;18066;52.106;5.534;2022-10-13T23:08:44;13.30;99.90
18297;DHT22;18066;52.106;5.534;2022-10-13T23:11:34;14.60;99.90
18297;DHT22;18066;52.106;5.534;2022-10-13T23:17:28;12.00;99.90
18297;DHT22;18066;52.106;5.534;2022-10-13T23:20:14;12.80;99.90
18297;DHT22;18066;52.106;5.534;2022-10-13T23:22:52;12.70;99.90
18297;DHT22;18066;52.106;5.534;2022-10-13T23:25:43;13.80;99.90
18297;DHT22;18066;52.106;5.534;2022-10-13T23:28:39;13.10;99.90
18297;DHT22;18066;52.106;5.534;2022-10-13T23:31:36;13.20;99.90
18297;DHT22;18066;52.106;5.534;2022-10-13T23:34:51;12.60;99.90
18297;DHT22;18066;52.106;5.534;2022-10-13T23:37:31;13.90;99.90
18297;DHT22;18066;52.106;5.534;2022-10-13T23:40:33;13.20;99.90
18297;DHT22;18066;52.106;5.534;2022-10-13T23:43:22;14.60;99.90
18297;DHT22;18066;52.106;5.534;2022-10-13T23:45:56;13.80;99.90
18297;DHT22;18066;52.106;5.534;2022-10-13T23:48:37;13.00;99.90
18297;DHT22;18066;52.106;5.534;2022-10-13T23:51:27;13.00;99.90
18297;DHT22;18066;52.106;5.534;2022-10-13T23:54:23;12.60;99.90
18297;DHT22;18066;52.106;5.534;2022-10-13T23:57:12;13.30;99.90
18297;DHT22;18066;52.106;5.534;2022-10-13T23:59:57;13.90;99.90
